Time;durP1;ratioP1;P1;durP2;ratioP2;P2;SDS_P1;SDS_P2;PMS_P1;PMS_P2;Temp;Humidity;BMP_temperature;BMP_pressure;BME280_temperature;BME280_humidity;BME280_pressure;Samples;Min_cycle;Max_cycle;Signal;HPM_P1;HPM_P2
2020/12/13 02:29:13;;;;;;;35.40;32.87;;;7.10;99.90;;;;;;5717408;23;20462;-80
2020/12/13 02:31:43;;;;;;;33.53;31.33;;;7.00;99.90;;;;;;5013693;28;20484;-78
2020/12/13 02:34:10;;;;;;;33.23;31.03;;;7.10;99.90;;;;;;5001039;28;20900;-80
2020/12/13 02:36:36;;;;;;;32.77;30.60;;;7.10;99.90;;;;;;5000090;28;20445;-80
2020/12/13 02:39:05;;;;;;;32.17;29.97;;;7.10;99.90;;;;;;4999850;28;20438;-81
2020/12/13 02:41:31;;;;;;;29.23;27.33;;;7.20;99.90;;;;;;5001732;28;20786;-83
2020/12/13 02:43:58;;;;;;;33.03;30.30;;;7.30;99.90;;;;;;5007326;28;20460;-79
2020/12/13 02:46:24;;;;;;;34.23;31.80;;;7.40;99.90;;;;;;5007375;28;20449;-80
2020/12/13 02:48:54;;;;;;;32.30;30.17;;;7.40;99.90;;;;;;5010183;28;20442;-85
2020/12/13 02:51:21;;;;;;;33.07;30.77;;;7.50;99.90;;;;;;5007743;28;20938;-79
2020/12/13 02:53:47;;;;;;;31.80;29.80;;;7.40;99.90;;;;;;5008345;28;20520;-79
2020/12/13 02:56:13;;;;;;;31.03;28.97;;;7.50;99.90;;;;;;5010235;28;20430;-84
2020/12/13 02:58:39;;;;;;;31.53;29.43;;;7.50;99.90;;;;;;5007016;28;20940;-83
2020/12/13 03:01:05;;;;;;;31.43;29.33;;;7.40;99.90;;;;;;5011600;28;20438;-82
2020/12/13 03:03:31;;;;;;;32.47;30.03;;;7.30;99.90;;;;;;5008420;28;20456;-82
2020/12/13 03:05:59;;;;;;;33.87;31.47;;;7.30;99.90;;;;;;5008886;28;20560;-83
2020/12/13 03:08:25;;;;;;;32.30;30.17;;;7.20;99.90;;;;;;5012652;28;20452;-81
2020/12/13 03:10:51;;;;;;;32.17;30.00;;;7.30;99.90;;;;;;5009952;28;20433;-82
2020/12/13 03:13:17;;;;;;;31.13;29.13;;;7.20;99.90;;;;;;5007324;28;20445;-83
2020/12/13 03:15:43;;;;;;;30.63;28.33;;;7.30;99.90;;;;;;5007193;28;20434;-83
2020/12/13 03:23:39;;;;;;;28.63;26.60;;;7.20;99.90;;;;;;5033466;28;20456;-87
2020/12/13 03:26:20;;;;;;;25.40;23.90;;;7.10;99.90;;;;;;5027202;28;20485;-87
2020/12/13 03:28:51;;;;;;;25.97;24.37;;;7.20;99.90;;;;;;5002820;28;20446;-86
2020/12/13 03:31:18;;;;;;;27.30;25.37;;;7.20;99.90;;;;;;5009682;28;20563;-87
2020/12/13 03:33:47;;;;;;;25.70;23.90;;;7.20;99.90;;;;;;5007166;28;20449;-87
2020/12/13 03:36:16;;;;;;;27.10;25.07;;;7.20;99.90;;;;;;5005025;28;20487;-87
2020/12/13 03:38:43;;;;;;;25.90;24.10;;;7.20;99.90;;;;;;5006568;28;20453;-81
2020/12/13 03:41:11;;;;;;;26.00;24.20;;;7.30;99.90;;;;;;4989330;28;20551;-87
2020/12/13 03:43:37;;;;;;;26.50;24.70;;;7.30;99.90;;;;;;4989033;28;20446;-81
2020/12/13 03:46:03;;;;;;;27.83;25.80;;;7.20;99.90;;;;;;4979319;28;20498;-82
2020/12/13 03:48:29;;;;;;;29.90;27.50;;;7.20;99.90;;;;;;4980725;28;20450;-82
2020/12/13 03:50:59;;;;;;;31.20;28.67;;;7.10;99.90;;;;;;4981084;28;20835;-84
2020/12/13 03:53:31;;;;;;;28.30;26.20;;;7.10;99.90;;;;;;4981356;28;20533;-84
2020/12/13 03:56:06;;;;;;;26.43;24.53;;;7.20;99.90;;;;;;4985309;28;20430;-84
2020/12/13 03:58:47;;;;;;;28.50;26.30;;;7.20;99.90;;;;;;4982765;28;20442;-83
2020/12/13 04:01:13;;;;;;;27.93;25.90;;;7.20;99.90;;;;;;4980171;28;20447;-83
2020/12/13 04:03:42;;;;;;;28.27;26.20;;;7.20;99.90;;;;;;4980294;28;20447;-82
2020/12/13 04:06:08;;;;;;;28.07;25.77;;;7.20;99.90;;;;;;4981647;28;20482;-81
2020/12/13 04:08:34;;;;;;;27.53;25.40;;;7.10;99.90;;;;;;4984929;28;20454;-81
2020/12/13 04:11:00;;;;;;;27.63;25.47;;;7.10;99.90;;;;;;4983828;28;20449;-80
2020/12/13 04:13:27;;;;;;;27.40;24.93;;;7.20;99.90;;;;;;4983516;28;20447;-84
2020/12/13 04:15:54;;;;;;;25.83;24.13;;;7.20;99.90;;;;;;4984924;28;20443;-81
2020/12/13 04:18:20;;;;;;;24.83;22.47;;;7.30;99.90;;;;;;4983429;28;20450;-81
2020/12/13 04:20:46;;;;;;;24.33;22.50;;;7.30;99.90;;;;;;4983598;28;20447;-80
2020/12/13 04:23:12;;;;;;;24.97;23.17;;;7.40;99.90;;;;;;4984761;28;20438;-79
2020/12/13 04:25:38;;;;;;;22.97;21.27;;;7.40;99.90;;;;;;4983204;28;20486;-80
2020/12/13 04:28:05;;;;;;;25.40;23.60;;;7.40;99.90;;;;;;4984492;28;21012;-79
2020/12/13 04:30:32;;;;;;;23.87;22.27;;;7.50;99.90;;;;;;4986508;28;20489;-79
2020/12/13 04:32:58;;;;;;;21.67;20.03;;;7.60;99.90;;;;;;4995738;28;20455;-78
2020/12/13 04:35:24;;;;;;;21.63;19.93;;;7.60;99.90;;;;;;4999017;28;20446;-80
2020/12/13 04:37:50;;;;;;;20.33;19.07;;;7.50;99.90;;;;;;4985023;28;20459;-80
2020/12/13 04:40:17;;;;;;;20.27;18.97;;;7.50;99.90;;;;;;4984358;28;20454;-81
2020/12/13 04:42:43;;;;;;;20.20;18.83;;;7.50;99.90;;;;;;4984264;28;20451;-81
2020/12/13 04:45:10;;;;;;;17.67;16.57;;;7.50;99.90;;;;;;4982519;28;20490;-81
2020/12/13 04:47:47;;;;;;;17.93;16.93;;;7.60;99.90;;;;;;4984759;28;20438;-81
2020/12/13 04:50:18;;;;;;;16.53;15.57;;;7.60;99.90;;;;;;4982858;28;20462;-82
2020/12/13 04:52:46;;;;;;;15.67;14.77;;;7.70;99.90;;;;;;4984266;28;20774;-81
2020/12/13 04:55:13;;;;;;;18.37;17.27;;;7.70;99.90;;;;;;4984923;28;20768;-82
2020/12/13 04:57:39;;;;;;;16.90;15.90;;;7.80;99.90;;;;;;4995167;28;20450;-82
2020/12/13 05:00:06;;;;;;;17.60;16.50;;;7.80;99.90;;;;;;4998235;28;20447;-79
2020/12/13 05:02:32;;;;;;;19.50;18.20;;;7.80;99.90;;;;;;4982742;28;20439;-79
2020/12/13 05:04:59;;;;;;;17.10;15.80;;;7.80;99.90;;;;;;4981584;28;20505;-79
2020/12/13 05:07:25;;;;;;;17.77;16.70;;;7.90;99.90;;;;;;4983383;28;20447;-80
2020/12/13 05:10:01;;;;;;;18.60;17.30;;;7.90;99.90;;;;;;4982376;28;20451;-81
2020/12/13 05:12:27;;;;;;;17.80;16.70;;;7.80;99.90;;;;;;4984453;28;20458;-83
2020/12/13 05:14:53;;;;;;;15.77;14.67;;;7.90;99.90;;;;;;4982658;28;20438;-82
2020/12/13 05:17:19;;;;;;;17.90;16.67;;;7.90;99.90;;;;;;4983390;28;20433;-84
2020/12/13 05:19:49;;;;;;;17.07;16.07;;;7.80;99.90;;;;;;4982927;28;20446;-83
2020/12/13 05:22:20;;;;;;;17.57;16.57;;;7.70;99.90;;;;;;4983097;28;20537;-83
2020/12/13 05:24:46;;;;;;;16.23;15.13;;;7.70;99.90;;;;;;4983236;28;20494;-84
2020/12/13 05:27:12;;;;;;;17.70;16.60;;;7.70;99.90;;;;;;4984454;28;20812;-85
2020/12/13 05:36:09;;;;;;;18.03;16.53;;;7.70;99.90;;;;;;4992493;28;20462;-85
2020/12/13 05:39:00;;;;;;;18.73;17.53;;;7.70;99.90;;;;;;4985209;28;20450;-86
2020/12/13 05:41:35;;;;;;;18.50;17.20;;;7.70;99.90;;;;;;4987296;28;20512;-84
2020/12/13 05:44:20;;;;;;;16.90;15.90;;;7.70;99.90;;;;;;4984746;28;20875;-84
2020/12/13 05:46:56;;;;;;;15.80;14.90;;;7.70;99.90;;;;;;4981793;28;20431;-83
2020/12/13 05:49:38;;;;;;;15.07;14.17;;;7.70;99.90;;;;;;4983561;28;20940;-84
2020/12/13 05:52:05;;;;;;;17.30;16.20;;;7.80;99.90;;;;;;4981740;28;20447;-82
2020/12/13 05:54:33;;;;;;;17.53;16.40;;;7.80;99.90;;;;;;4982802;28;20446;-79
2020/12/13 05:57:01;;;;;;;17.67;16.63;;;7.80;99.90;;;;;;4980637;28;20723;-79
2020/12/13 05:59:29;;;;;;;18.40;17.20;;;7.80;99.90;;;;;;4980562;28;21000;-78
2020/12/13 06:01:57;;;;;;;16.60;15.60;;;7.80;99.90;;;;;;4982185;28;20443;-78
2020/12/13 06:04:25;;;;;;;17.10;16.10;;;7.80;99.90;;;;;;4980794;28;20443;-78
2020/12/13 06:06:55;;;;;;;16.77;15.67;;;7.80;99.90;;;;;;4980212;28;20439;-77
2020/12/13 06:09:32;;;;;;;17.13;16.07;;;7.80;99.90;;;;;;4982283;28;20474;-77
2020/12/13 06:12:02;;;;;;;17.37;16.20;;;7.80;99.90;;;;;;4980409;28;20446;-77
2020/12/13 06:14:29;;;;;;;17.70;16.60;;;7.80;99.90;;;;;;4982160;28;20450;-78
2020/12/13 06:16:56;;;;;;;17.83;16.80;;;7.80;99.90;;;;;;4980442;28;20474;-78
2020/12/13 06:19:25;;;;;;;17.37;16.37;;;7.90;99.90;;;;;;4982101;28;20451;-79
2020/12/13 06:21:54;;;;;;;16.63;15.63;;;7.90;99.90;;;;;;4982452;28;20454;-82
2020/12/13 06:24:21;;;;;;;14.83;14.03;;;7.90;99.90;;;;;;4982231;28;20443;-83
2020/12/13 06:26:47;;;;;;;16.50;15.50;;;8.00;99.90;;;;;;4983978;28;20473;-83
2020/12/13 06:29:15;;;;;;;15.40;14.40;;;8.00;99.90;;;;;;4981501;28;20481;-82
2020/12/13 06:31:42;;;;;;;14.97;14.17;;;8.00;99.90;;;;;;4984572;28;20787;-83
2020/12/13 06:34:08;;;;;;;14.87;14.07;;;8.00;99.90;;;;;;4983045;28;20485;-83
2020/12/13 06:36:36;;;;;;;16.30;15.43;;;8.00;99.90;;;;;;4982265;28;20797;-85
2020/12/13 06:39:08;;;;;;;15.10;14.20;;;8.00;99.90;;;;;;4983915;28;20797;-84
2020/12/13 06:41:35;;;;;;;14.80;13.90;;;8.00;99.90;;;;;;4984328;28;20461;-84
2020/12/13 06:44:05;;;;;;;14.43;13.63;;;8.10;99.90;;;;;;4981990;28;20454;-83
2020/12/13 06:46:32;;;;;;;15.77;14.70;;;8.10;99.90;;;;;;4983971;28;20478;-82
2020/12/13 06:48:59;;;;;;;14.37;13.63;;;8.00;99.90;;;;;;5399088;23;20454;-79
2020/12/13 06:51:28;;;;;;;14.80;14.10;;;8.00;99.90;;;;;;5023374;28;20423;-82
2020/12/13 06:53:55;;;;;;;13.07;12.47;;;8.00;99.90;;;;;;5002492;28;20529;-73
2020/12/13 06:56:22;;;;;;;14.27;13.47;;;8.00;99.90;;;;;;5004060;28;20438;-83
2020/12/13 06:58:55;;;;;;;14.17;13.17;;;8.00;99.90;;;;;;5002787;28;20465;-74
2020/12/13 07:01:22;;;;;;;13.30;12.70;;;8.10;99.90;;;;;;4998876;28;21003;-74
2020/12/13 07:03:50;;;;;;;13.77;12.87;;;8.00;99.90;;;;;;5016855;28;20446;-82
2020/12/13 07:06:19;;;;;;;13.67;12.97;;;8.10;99.90;;;;;;5010282;28;20474;-83
2020/12/13 07:08:51;;;;;;;13.47;12.87;;;8.10;99.90;;;;;;5013590;28;20445;-82
2020/12/13 07:11:18;;;;;;;14.30;13.50;;;8.10;99.90;;;;;;5008397;28;20457;-82
2020/12/13 07:13:46;;;;;;;13.87;13.10;;;8.20;99.90;;;;;;5009390;28;20445;-82
2020/12/13 07:16:26;;;;;;;12.50;11.90;;;8.20;99.90;;;;;;5011427;28;20800;-81
2020/12/13 07:19:00;;;;;;;12.50;11.80;;;8.20;99.90;;;;;;5010893;28;20448;-79
2020/12/13 07:21:26;;;;;;;12.60;11.40;;;8.20;99.90;;;;;;5007292;28;20441;-82
2020/12/13 07:23:54;;;;;;;12.87;12.27;;;8.20;99.90;;;;;;5010773;28;20803;-81
2020/12/13 07:26:21;;;;;;;12.80;11.93;;;8.30;99.90;;;;;;5007399;28;20595;-82
2020/12/13 07:28:48;;;;;;;12.53;11.90;;;8.40;99.90;;;;;;5009854;28;20917;-81
2020/12/13 07:31:18;;;;;;;13.13;12.50;;;8.30;99.90;;;;;;5009936;28;20446;-82
2020/12/13 07:33:45;;;;;;;12.63;12.03;;;8.30;99.90;;;;;;5011648;28;20541;-81
2020/12/13 07:36:12;;;;;;;11.60;11.10;;;8.40;99.90;;;;;;5011927;28;20643;-84
2020/12/13 07:38:40;;;;;;;11.43;10.83;;;8.40;99.90;;;;;;5010538;28;20453;-84
2020/12/13 07:41:14;;;;;;;11.33;10.83;;;8.50;99.90;;;;;;5012488;28;20445;-82
2020/12/13 07:43:54;;;;;;;12.07;11.57;;;8.50;99.90;;;;;;5006929;28;20450;-83
2020/12/13 07:46:20;;;;;;;11.93;11.13;;;8.50;99.90;;;;;;5009559;28;20484;-84
2020/12/13 07:48:47;;;;;;;10.47;9.97;;;8.40;99.90;;;;;;5010294;28;20943;-85
2020/12/13 07:51:16;;;;;;;10.50;10.10;;;8.40;99.90;;;;;;5027244;28;20456;-86
2020/12/13 08:02:26;;;;;;;12.23;11.73;;;8.70;99.90;;;;;;4996411;28;20441;-82
2020/12/13 08:04:52;;;;;;;11.40;11.00;;;8.80;99.90;;;;;;5011112;28;20888;-83
2020/12/13 08:07:21;;;;;;;11.67;11.23;;;8.70;99.90;;;;;;5009793;28;20446;-83
2020/12/13 08:09:55;;;;;;;11.87;11.27;;;8.60;99.90;;;;;;5012723;28;20445;-83
2020/12/13 08:12:30;;;;;;;12.30;11.90;;;8.70;99.90;;;;;;5003911;28;20545;-80
2020/12/13 08:14:56;;;;;;;12.50;11.97;;;8.70;99.90;;;;;;5007369;28;20435;-79
2020/12/13 08:17:22;;;;;;;12.80;12.30;;;8.80;99.90;;;;;;5010819;28;20815;-78
2020/12/13 08:19:49;;;;;;;13.10;12.60;;;8.80;99.90;;;;;;5008767;28;20434;-79
2020/12/13 08:22:21;;;;;;;11.90;11.50;;;8.90;99.90;;;;;;5003016;28;20465;-81
2020/12/13 08:24:53;;;;;;;12.70;12.30;;;8.80;99.90;;;;;;5008957;28;20821;-81
2020/12/13 08:27:20;;;;;;;12.80;12.30;;;8.80;99.90;;;;;;5006579;28;20466;-81
2020/12/13 08:29:46;;;;;;;13.40;12.90;;;8.70;99.90;;;;;;5012807;28;20442;-81
2020/12/13 08:32:14;;;;;;;13.13;12.63;;;8.80;99.90;;;;;;5007784;28;20457;-81
2020/12/13 08:34:40;;;;;;;13.00;12.60;;;8.80;99.90;;;;;;5012629;28;20695;-81
2020/12/13 08:37:06;;;;;;;12.17;11.77;;;8.80;99.90;;;;;;5008056;28;20437;-79
2020/12/13 08:39:35;;;;;;;12.77;12.27;;;8.80;99.90;;;;;;5009928;28;20449;-82
2020/12/13 08:42:03;;;;;;;12.80;12.30;;;8.80;99.90;;;;;;5008792;28;20821;-85
2020/12/13 08:44:32;;;;;;;12.73;12.20;;;8.90;99.90;;;;;;5013275;28;20445;-85
2020/12/13 08:47:00;;;;;;;13.30;12.80;;;8.90;99.90;;;;;;5006123;28;20854;-81
2020/12/13 08:49:28;;;;;;;11.80;11.30;;;8.80;99.90;;;;;;5012095;28;20437;-79
2020/12/13 08:51:54;;;;;;;12.00;11.60;;;8.80;99.90;;;;;;5011261;28;20437;-79
2020/12/13 08:54:21;;;;;;;12.37;11.87;;;8.80;99.90;;;;;;5012764;28;20453;-82
2020/12/13 08:56:52;;;;;;;13.70;13.20;;;9.00;99.90;;;;;;5012190;28;20442;-83
2020/12/13 09:38:33;;;;;;;;;;;;;;;;;;;;;
2020/12/13 10:21:03;;;;;;;10.87;10.27;;;11.00;99.90;;;;;;5363769;23;20885;-89
2020/12/13 10:23:40;;;;;;;10.83;10.33;;;11.30;99.90;;;;;;5008542;28;20445;-90
2020/12/13 10:26:29;;;;;;;;;;;;;;;;;;;;;
2020/12/13 10:29:27;;;;;;;;;;;;;;;;;;;;;
2020/12/13 10:32:11;;;;;;;10.50;10.00;;;11.60;99.90;;;;;;5010283;28;20442;-87
2020/12/13 10:40:23;;;;;;;11.57;10.97;;;11.30;99.90;;;;;;4974138;28;20439;-87
2020/12/13 10:43:01;;;;;;;10.90;10.40;;;11.50;99.90;;;;;;4994596;28;20438;-82
2020/12/13 10:45:27;;;;;;;10.87;10.37;;;11.50;99.90;;;;;;4986082;28;20493;-75
2020/12/13 10:47:54;;;;;;;11.07;10.50;;;11.40;99.90;;;;;;4987138;28;20852;-84
2020/12/13 10:50:20;;;;;;;11.87;10.90;;;11.40;99.90;;;;;;4995605;28;20844;-85
2020/12/13 10:52:46;;;;;;;10.67;10.07;;;11.20;99.90;;;;;;5009089;28;20450;-86
2020/12/13 10:55:13;;;;;;;11.17;10.67;;;11.40;99.90;;;;;;5012400;28;20875;-83
2020/12/13 10:57:40;;;;;;;10.80;10.20;;;11.50;99.90;;;;;;5012100;28;20830;-83
2020/12/13 11:00:06;;;;;;;11.73;11.23;;;11.70;99.90;;;;;;5011477;28;20439;-81
2020/12/13 11:02:32;;;;;;;11.53;11.03;;;11.90;99.90;;;;;;5012205;28;20823;-81
2020/12/13 11:04:58;;;;;;;9.47;8.97;;;11.90;99.90;;;;;;5011754;28;20442;-80
2020/12/13 11:07:24;;;;;;;10.90;10.40;;;12.40;99.90;;;;;;5011377;28;20811;-79
2020/12/13 11:09:52;;;;;;;11.50;11.00;;;13.80;99.90;;;;;;5011281;28;20446;-80
2020/12/13 11:12:18;;;;;;;10.90;10.50;;;16.00;99.90;;;;;;5011305;28;20450;-79
2020/12/13 11:14:45;;;;;;;12.10;11.60;;;18.60;97.60;;;;;;5010649;28;20452;-80
2020/12/13 11:17:11;;;;;;;12.00;11.60;;;20.40;91.60;;;;;;5010924;28;20446;-80
2020/12/13 11:19:38;;;;;;;12.80;12.10;;;21.80;86.20;;;;;;5011165;28;20805;-80
2020/12/13 11:22:04;;;;;;;10.63;10.13;;;23.40;82.20;;;;;;5011416;28;20474;-78
2020/12/13 11:24:30;;;;;;;10.70;10.30;;;22.60;81.10;;;;;;5011158;28;20446;-78
2020/12/13 11:26:56;;;;;;;10.83;10.53;;;22.00;78.60;;;;;;5010727;28;20501;-80
2020/12/13 11:29:24;;;;;;;10.60;10.30;;;21.10;76.80;;;;;;5010880;28;20449;-77
2020/12/13 11:31:52;;;;;;;11.73;11.23;;;21.30;80.80;;;;;;4997786;28;20475;-82
2020/12/13 11:34:18;;;;;;;11.10;10.80;;;20.80;76.70;;;;;;4992055;28;20446;-84
2020/12/13 11:36:44;;;;;;;11.20;10.80;;;19.20;85.30;;;;;;5006812;28;20482;-83
2020/12/13 11:39:11;;;;;;;10.60;10.20;;;17.60;88.90;;;;;;5011180;28;20435;-80
2020/12/13 11:41:37;;;;;;;10.77;10.37;;;16.30;93.20;;;;;;4982070;28;20444;-80
2020/12/13 11:44:03;;;;;;;9.80;9.40;;;14.80;95.80;;;;;;4973451;28;20487;-81
2020/12/13 11:46:29;;;;;;;10.40;10.00;;;14.20;98.20;;;;;;4972587;28;20492;-81
2020/12/13 11:48:56;;;;;;;10.00;9.60;;;13.40;99.50;;;;;;4982475;28;20935;-80
2020/12/13 11:51:23;;;;;;;10.80;10.20;;;12.90;99.90;;;;;;4991827;28;20438;-80
2020/12/13 11:53:49;;;;;;;9.43;9.07;;;12.30;99.90;;;;;;4992127;28;20959;-81
2020/12/13 11:56:19;;;;;;;9.90;9.50;;;11.90;99.90;;;;;;4991823;28;20795;-81
2020/12/13 11:58:46;;;;;;;9.63;9.20;;;11.50;99.90;;;;;;4991923;28;20799;-81
2020/12/13 12:01:12;;;;;;;9.03;8.40;;;11.30;99.90;;;;;;4991885;28;20443;-81
2020/12/13 12:03:38;;;;;;;10.30;9.83;;;11.50;99.90;;;;;;4991551;28;20459;-81
2020/12/13 12:06:08;;;;;;;10.70;10.20;;;11.20;99.90;;;;;;4991816;28;20513;-80
2020/12/13 12:08:34;;;;;;;10.47;9.90;;;11.40;99.90;;;;;;4992071;28;20451;-80
2020/12/13 12:11:01;;;;;;;9.00;8.60;;;11.20;99.90;;;;;;4991720;28;20928;-81
2020/12/13 12:13:27;;;;;;;8.90;8.50;;;11.10;99.90;;;;;;4991707;28;20442;-80
2020/12/13 12:15:53;;;;;;;9.90;9.40;;;11.10;99.90;;;;;;4991842;28;20447;-81
2020/12/13 12:18:19;;;;;;;9.20;8.60;;;11.10;99.90;;;;;;4991774;28;20443;-81
2020/12/13 12:20:46;;;;;;;8.90;8.40;;;11.00;99.90;;;;;;4991445;28;20960;-81
2020/12/13 12:23:13;;;;;;;8.97;8.67;;;11.00;99.90;;;;;;4991527;28;20542;-80
2020/12/13 12:25:39;;;;;;;10.30;9.90;;;11.00;99.90;;;;;;4991592;28;20474;-81
2020/12/13 12:28:05;;;;;;;9.40;9.00;;;11.10;99.90;;;;;;4994374;28;20474;-80
2020/12/13 12:30:31;;;;;;;9.70;9.17;;;11.10;99.90;;;;;;4995099;28;20612;-80
2020/12/13 12:32:59;;;;;;;8.80;8.40;;;11.20;99.90;;;;;;4995135;28;20454;-81
2020/12/13 12:35:25;;;;;;;9.50;9.20;;;11.10;99.90;;;;;;4995109;28;20442;-81
2020/12/13 12:37:51;;;;;;;8.93;8.63;;;11.10;99.90;;;;;;4995313;28;20447;-81
2020/12/13 12:40:18;;;;;;;9.00;8.57;;;11.10;99.90;;;;;;4995544;28;20798;-81
2020/12/13 12:42:44;;;;;;;10.57;10.07;;;11.00;99.90;;;;;;4994920;28;20932;-81
2020/12/13 12:45:11;;;;;;;8.50;8.20;;;11.00;99.90;;;;;;4995006;28;20446;-83
2020/12/13 12:47:37;;;;;;;9.60;9.23;;;11.10;99.90;;;;;;4994819;28;20479;-81
2020/12/13 12:50:03;;;;;;;10.20;9.47;;;11.20;99.90;;;;;;4995045;28;20473;-83
2020/12/13 12:52:30;;;;;;;10.00;9.50;;;11.20;99.90;;;;;;4995180;28;20474;-82
2020/12/13 12:54:56;;;;;;;9.50;9.20;;;11.10;99.90;;;;;;4995005;28;20474;-82
2020/12/13 12:57:23;;;;;;;9.93;9.63;;;11.10;99.90;;;;;;4994921;28;20446;-82
2020/12/13 13:00:03;;;;;;;11.00;10.60;;;11.30;99.90;;;;;;4995207;28;20478;-82
2020/12/13 13:02:29;;;;;;;10.90;10.40;;;11.20;99.90;;;;;;4994839;28;20451;-83
2020/12/13 13:04:59;;;;;;;9.33;8.97;;;11.10;99.90;;;;;;4995011;28;20447;-82
2020/12/13 13:07:28;;;;;;;10.70;10.30;;;11.20;99.90;;;;;;4994956;28;20485;-82
2020/12/13 13:09:57;;;;;;;10.60;10.20;;;11.30;99.90;;;;;;4995188;28;20474;-83
2020/12/13 13:12:25;;;;;;;11.00;10.50;;;11.00;99.90;;;;;;4994997;28;20454;-83
2020/12/13 13:14:52;;;;;;;10.23;9.83;;;10.90;99.90;;;;;;4994696;28;20482;-83
2020/12/13 13:17:21;;;;;;;14.93;13.67;;;10.70;99.90;;;;;;4995096;28;20505;-83
2020/12/13 13:19:53;;;;;;;14.50;13.50;;;10.70;99.90;;;;;;4994918;28;20455;-82
2020/12/13 13:22:20;;;;;;;12.40;11.80;;;10.70;99.90;;;;;;4995000;28;20482;-83
2020/12/13 13:24:46;;;;;;;9.73;9.33;;;10.90;99.90;;;;;;4994823;28;20447;-82
2020/12/13 13:27:12;;;;;;;13.10;12.40;;;11.00;99.90;;;;;;4994398;28;21000;-82
2020/12/13 13:29:40;;;;;;;12.07;11.47;;;10.80;99.90;;;;;;4994513;28;20454;-82
2020/12/13 13:32:08;;;;;;;11.33;10.73;;;10.90;99.90;;;;;;4994716;28;20444;-82
2020/12/13 13:34:35;;;;;;;10.93;10.43;;;11.00;99.90;;;;;;4994591;28;20447;-82
2020/12/13 13:37:01;;;;;;;10.77;10.27;;;11.10;99.90;;;;;;4994490;28;21010;-81
2020/12/13 13:39:27;;;;;;;9.53;9.13;;;11.10;99.90;;;;;;4993584;28;20450;-81
2020/12/13 13:41:54;;;;;;;10.20;9.67;;;11.00;99.90;;;;;;4995065;28;20932;-81
2020/12/13 13:44:23;;;;;;;10.47;9.87;;;11.00;99.90;;;;;;5006649;28;20450;-81
2020/12/13 13:46:55;;;;;;;10.20;9.70;;;10.90;99.90;;;;;;5002799;28;20482;-82
2020/12/13 13:49:32;;;;;;;10.20;9.63;;;10.90;99.90;;;;;;4994266;28;20455;-81
2020/12/13 13:51:58;;;;;;;10.60;10.20;;;10.80;99.90;;;;;;4994369;28;20921;-83
2020/12/13 13:54:24;;;;;;;11.30;10.80;;;10.80;99.90;;;;;;4994001;28;20509;-80
2020/12/13 13:56:58;;;;;;;10.73;10.13;;;10.60;99.90;;;;;;4993878;28;20443;-80
2020/12/13 13:59:27;;;;;;;10.50;10.00;;;10.60;99.90;;;;;;4993714;28;20447;-80
2020/12/13 14:01:54;;;;;;;10.73;10.27;;;10.40;99.90;;;;;;4993964;28;20447;-81
2020/12/13 14:04:20;;;;;;;10.90;10.40;;;10.60;99.90;;;;;;5002708;28;20450;-82
2020/12/13 14:09:31;;;;;;;11.03;10.47;;;10.50;99.90;;;;;;5003278;28;20477;-82
2020/12/13 14:11:58;;;;;;;11.07;10.47;;;10.50;99.90;;;;;;4994185;28;20447;-82
2020/12/13 14:14:25;;;;;;;12.20;11.67;;;10.50;99.90;;;;;;4993850;28;20438;-82
2020/12/13 14:16:51;;;;;;;10.67;10.17;;;10.50;99.90;;;;;;4993753;28;20442;-83
2020/12/13 14:19:21;;;;;;;11.80;11.20;;;10.40;99.90;;;;;;4993554;28;20450;-83
2020/12/13 14:21:47;;;;;;;11.07;10.57;;;10.40;99.90;;;;;;4993530;28;20501;-83
2020/12/13 14:24:13;;;;;;;12.37;11.47;;;10.40;99.90;;;;;;4993417;28;20941;-83
2020/12/13 14:26:40;;;;;;;12.47;11.83;;;10.30;99.90;;;;;;4993256;28;20495;-83
2020/12/13 14:29:07;;;;;;;11.37;10.87;;;10.30;99.90;;;;;;4993192;28;20493;-82
2020/12/13 14:31:33;;;;;;;11.90;11.40;;;10.20;99.90;;;;;;4993356;28;20454;-83
2020/12/13 14:34:00;;;;;;;11.53;10.93;;;10.20;99.90;;;;;;4993270;28;20961;-81
2020/12/13 14:36:27;;;;;;;12.63;11.80;;;10.30;99.90;;;;;;4993008;28;20888;-81
2020/12/13 14:38:54;;;;;;;11.63;11.07;;;10.20;99.90;;;;;;4992802;28;20450;-81
2020/12/13 14:41:21;;;;;;;11.20;10.70;;;10.00;99.90;;;;;;4973408;28;20448;-83
2020/12/13 14:43:47;;;;;;;11.27;10.33;;;9.90;99.90;;;;;;4973590;28;20455;-83
2020/12/13 14:46:15;;;;;;;12.33;11.50;;;10.00;99.90;;;;;;4973826;28;20495;-82
2020/12/13 14:48:42;;;;;;;12.90;12.20;;;9.90;99.90;;;;;;4973145;28;20447;-81
2020/12/13 14:51:09;;;;;;;10.33;9.93;;;9.90;99.90;;;;;;4973068;28;20479;-82
2020/12/13 14:53:36;;;;;;;12.10;11.50;;;9.90;99.90;;;;;;4973497;28;20454;-81
2020/12/13 14:56:03;;;;;;;14.33;13.53;;;10.00;99.90;;;;;;4973356;28;20440;-81
2020/12/13 14:58:29;;;;;;;12.10;11.53;;;9.90;99.90;;;;;;4973148;28;20463;-81
2020/12/13 15:00:56;;;;;;;13.23;12.47;;;9.90;99.90;;;;;;4973027;28;20448;-82
2020/12/13 15:03:22;;;;;;;12.97;12.37;;;9.90;99.90;;;;;;4973138;28;20444;-81
2020/12/13 15:05:48;;;;;;;13.27;12.67;;;9.70;99.90;;;;;;4973174;28;20846;-82
2020/12/13 15:08:14;;;;;;;13.30;12.60;;;9.70;99.90;;;;;;4973061;28;20966;-82
2020/12/13 15:10:41;;;;;;;13.03;12.23;;;9.70;99.90;;;;;;4972969;28;20451;-82
2020/12/13 15:13:09;;;;;;;16.00;14.73;;;9.80;99.90;;;;;;4973068;28;20451;-82
2020/12/13 15:15:43;;;;;;;19.20;17.60;;;9.80;99.90;;;;;;4973284;28;20520;-81
2020/12/13 15:18:09;;;;;;;19.60;18.20;;;9.60;99.90;;;;;;4973259;28;20503;-83
2020/12/13 15:20:35;;;;;;;20.00;18.20;;;9.70;99.90;;;;;;4972977;28;20459;-82
2020/12/13 15:23:01;;;;;;;18.23;16.80;;;9.60;99.90;;;;;;4972714;28;20444;-83
2020/12/13 15:25:27;;;;;;;17.03;15.83;;;9.60;99.90;;;;;;4972519;28;20444;-81
2020/12/13 15:27:55;;;;;;;16.30;15.03;;;9.70;99.90;;;;;;4972340;28;20468;-82
2020/12/13 15:30:22;;;;;;;12.37;11.70;;;9.60;99.90;;;;;;4972707;28;20504;-81
2020/12/13 15:32:48;;;;;;;14.17;13.27;;;9.60;99.90;;;;;;4973097;28;20479;-82
2020/12/13 15:35:14;;;;;;;13.70;12.80;;;9.50;99.90;;;;;;4971148;28;20467;-81
2020/12/13 15:37:40;;;;;;;13.40;12.60;;;9.50;99.90;;;;;;4972685;28;20447;-81
2020/12/13 15:40:06;;;;;;;13.87;12.87;;;9.40;99.90;;;;;;4972570;28;20451;-80
2020/12/13 15:42:36;;;;;;;13.43;12.57;;;9.40;99.90;;;;;;4972488;28;20743;-82
2020/12/13 15:45:05;;;;;;;12.43;11.63;;;9.30;99.90;;;;;;4972652;28;20448;-84
2020/12/13 15:47:31;;;;;;;13.07;12.37;;;9.30;99.90;;;;;;4972702;28;20515;-83
2020/12/13 15:49:58;;;;;;;12.73;11.73;;;9.20;99.90;;;;;;4972582;28;20806;-83
2020/12/13 15:52:24;;;;;;;13.07;12.20;;;9.20;99.90;;;;;;4972564;28;20450;-83
2020/12/13 15:54:50;;;;;;;13.70;12.70;;;9.00;99.90;;;;;;4972499;28;20471;-83
2020/12/13 15:57:17;;;;;;;16.07;14.87;;;8.80;99.90;;;;;;4972542;28;20447;-82
2020/12/13 15:59:43;;;;;;;12.97;12.10;;;8.80;99.90;;;;;;4973069;28;20451;-83
2020/12/13 16:02:10;;;;;;;15.47;14.37;;;8.70;99.90;;;;;;4974121;28;20451;-85
2020/12/13 16:04:36;;;;;;;15.10;14.27;;;8.70;99.90;;;;;;4976222;28;20454;-85
2020/12/13 16:07:10;;;;;;;15.33;14.23;;;8.70;99.90;;;;;;4976155;28;20479;-85
2020/12/13 16:09:36;;;;;;;15.80;14.70;;;8.60;99.90;;;;;;4976514;28;20497;-84
2020/12/13 16:12:03;;;;;;;14.80;13.80;;;8.70;99.90;;;;;;4976379;28;20455;-84
2020/12/13 16:14:29;;;;;;;16.53;15.53;;;8.70;99.90;;;;;;4976358;28;20466;-84
2020/12/13 16:16:56;;;;;;;15.40;14.20;;;8.70;99.90;;;;;;4976315;28;20439;-84
2020/12/13 16:19:23;;;;;;;14.63;13.70;;;8.70;99.90;;;;;;4976043;28;20452;-85
2020/12/13 16:21:49;;;;;;;14.90;14.00;;;8.80;99.90;;;;;;4976432;28;20443;-86
2020/12/13 16:24:17;;;;;;;14.50;13.60;;;8.80;99.90;;;;;;4976390;28;20449;-84
2020/12/13 16:26:43;;;;;;;14.90;13.90;;;8.90;99.90;;;;;;4975872;28;20486;-84
2020/12/13 16:29:09;;;;;;;14.77;13.80;;;9.00;99.90;;;;;;4977300;28;20436;-83
2020/12/13 16:31:38;;;;;;;15.37;14.33;;;8.90;99.90;;;;;;4983211;28;20446;-83
2020/12/13 16:34:04;;;;;;;13.90;13.00;;;8.90;99.90;;;;;;4995197;28;20488;-85
2020/12/13 16:36:36;;;;;;;14.50;13.50;;;8.90;99.90;;;;;;4994283;28;20467;-84
2020/12/13 16:39:04;;;;;;;16.20;14.70;;;8.90;99.90;;;;;;4982052;28;20506;-85
2020/12/13 16:41:32;;;;;;;16.13;15.13;;;8.80;99.90;;;;;;5001062;28;20478;-84
2020/12/13 16:44:07;;;;;;;14.93;13.83;;;8.70;99.90;;;;;;5013624;28;20443;-84
2020/12/13 16:46:40;;;;;;;16.40;15.27;;;8.70;99.90;;;;;;4996343;28;20509;-84
2020/12/13 16:49:20;;;;;;;16.03;14.93;;;8.60;99.90;;;;;;4995548;28;20458;-82
2020/12/13 16:52:02;;;;;;;17.40;16.20;;;8.60;99.90;;;;;;4995576;28;20454;-83
2020/12/13 16:54:28;;;;;;;17.80;16.57;;;8.40;99.90;;;;;;4995019;28;20525;-82
2020/12/13 16:56:54;;;;;;;15.20;14.17;;;8.50;99.90;;;;;;4994959;28;20960;-83
2020/12/13 16:59:20;;;;;;;16.23;15.10;;;8.60;99.90;;;;;;4995141;28;20212;-83